sensor_id;sensor_type;location;lat;lon;timestamp;P1;durP1;ratioP1;P2;durP2;ratioP2
12603;SDS011;6367;52.508;13.284;2023-06-24T00:01:00;14.97;;;13.47;;
12603;SDS011;6367;52.508;13.284;2023-06-24T00:03:26;16.00;;;14.40;;
12603;SDS011;6367;52.508;13.284;2023-06-24T00:05:51;17.40;;;15.67;;
12603;SDS011;6367;52.508;13.284;2023-06-24T00:08:18;17.80;;;16.10;;
12603;SDS011;6367;52.508;13.284;2023-06-24T00:10:46;21.77;;;19.07;;
12603;SDS011;6367;52.508;13.284;2023-06-24T00:13:12;17.60;;;16.00;;
12603;SDS011;6367;52.508;13.284;2023-06-24T00:15:39;17.70;;;15.90;;
12603;SDS011;6367;52.508;13.284;2023-06-24T00:18:11;16.17;;;14.73;;
12603;SDS011;6367;52.508;13.284;2023-06-24T00:20:37;19.27;;;17.40;;
12603;SDS011;6367;52.508;13.284;2023-06-24T00:23:03;18.90;;;16.97;;
12603;SDS011;6367;52.508;13.284;2023-06-24T00:25:29;17.87;;;16.17;;
12603;SDS011;6367;52.508;13.284;2023-06-24T00:27:55;19.00;;;17.20;;
12603;SDS011;6367;52.508;13.284;2023-06-24T00:30:21;20.53;;;18.43;;
12603;SDS011;6367;52.508;13.284;2023-06-24T00:32:47;17.03;;;15.40;;
12603;SDS011;6367;52.508;13.284;2023-06-24T00:35:13;17.93;;;16.13;;
12603;SDS011;6367;52.508;13.284;2023-06-24T00:37:40;19.30;;;17.27;;
12603;SDS011;6367;52.508;13.284;2023-06-24T00:40:07;17.87;;;16.07;;
12603;SDS011;6367;52.508;13.284;2023-06-24T00:42:39;18.37;;;16.63;;
12603;SDS011;6367;52.508;13.284;2023-06-24T00:45:06;18.57;;;16.70;;
12603;SDS011;6367;52.508;13.284;2023-06-24T00:47:33;18.90;;;16.80;;
12603;SDS011;6367;52.508;13.284;2023-06-24T00:49:59;16.20;;;14.60;;
12603;SDS011;6367;52.508;13.284;2023-06-24T00:52:25;16.90;;;15.30;;
12603;SDS011;6367;52.508;13.284;2023-06-24T00:54:50;17.67;;;16.07;;
12603;SDS011;6367;52.508;13.284;2023-06-24T00:57:16;18.13;;;15.30;;
12603;SDS011;6367;52.508;13.284;2023-06-24T00:59:44;18.47;;;16.63;;
12603;SDS011;6367;52.508;13.284;2023-06-24T01:02:12;17.13;;;15.63;;
12603;SDS011;6367;52.508;13.284;2023-06-24T01:04:38;17.83;;;16.23;;
12603;SDS011;6367;52.508;13.284;2023-06-24T01:07:04;18.93;;;17.13;;
12603;SDS011;6367;52.508;13.284;2023-06-24T01:09:31;18.10;;;16.40;;
12603;SDS011;6367;52.508;13.284;2023-06-24T01:11:57;15.93;;;14.33;;
12603;SDS011;6367;52.508;13.284;2023-06-24T01:14:23;17.43;;;15.50;;
12603;SDS011;6367;52.508;13.284;2023-06-24T01:17:33;14.83;;;13.53;;
12603;SDS011;6367;52.508;13.284;2023-06-24T01:22:43;15.73;;;14.23;;
12603;SDS011;6367;52.508;13.284;2023-06-24T01:25:41;17.57;;;15.77;;
12603;SDS011;6367;52.508;13.284;2023-06-24T01:33:58;15.43;;;14.03;;
12603;SDS011;6367;52.508;13.284;2023-06-24T01:36:26;14.73;;;13.40;;
12603;SDS011;6367;52.508;13.284;2023-06-24T01:38:58;14.97;;;13.47;;
12603;SDS011;6367;52.508;13.284;2023-06-24T01:41:31;14.60;;;13.30;;
12603;SDS011;6367;52.508;13.284;2023-06-24T01:44:01;14.70;;;13.20;;
12603;SDS011;6367;52.508;13.284;2023-06-24T01:46:29;15.07;;;13.47;;
12603;SDS011;6367;52.508;13.284;2023-06-24T01:48:55;14.73;;;13.30;;
12603;SDS011;6367;52.508;13.284;2023-06-24T01:51:27;15.43;;;14.00;;
12603;SDS011;6367;52.508;13.284;2023-06-24T01:53:57;13.67;;;12.47;;
12603;SDS011;6367;52.508;13.284;2023-06-24T01:56:27;14.77;;;13.37;;
12603;SDS011;6367;52.508;13.284;2023-06-24T01:58:54;14.23;;;12.87;;
12603;SDS011;6367;52.508;13.284;2023-06-24T02:01:23;13.07;;;11.87;;
12603;SDS011;6367;52.508;13.284;2023-06-24T02:03:50;15.90;;;12.57;;
12603;SDS011;6367;52.508;13.284;2023-06-24T02:06:17;20.03;;;13.50;;
12603;SDS011;6367;52.508;13.284;2023-06-24T02:08:44;14.10;;;12.90;;
12603;SDS011;6367;52.508;13.284;2023-06-24T02:11:12;14.80;;;12.33;;
12603;SDS011;6367;52.508;13.284;2023-06-24T02:13:39;13.67;;;12.37;;
12603;SDS011;6367;52.508;13.284;2023-06-24T02:16:07;15.03;;;13.57;;
12603;SDS011;6367;52.508;13.284;2023-06-24T02:18:35;13.73;;;12.43;;
12603;SDS011;6367;52.508;13.284;2023-06-24T02:21:03;15.77;;;12.10;;
12603;SDS011;6367;52.508;13.284;2023-06-24T02:23:30;12.60;;;11.10;;
12603;SDS011;6367;52.508;13.284;2023-06-24T02:25:56;12.83;;;11.63;;
12603;SDS011;6367;52.508;13.284;2023-06-24T02:28:23;15.37;;;13.60;;
12603;SDS011;6367;52.508;13.284;2023-06-24T02:30:49;12.87;;;11.60;;
12603;SDS011;6367;52.508;13.284;2023-06-24T02:33:16;12.63;;;11.43;;
12603;SDS011;6367;52.508;13.284;2023-06-24T02:35:42;12.60;;;11.33;;
12603;SDS011;6367;52.508;13.284;2023-06-24T02:38:10;13.93;;;10.10;;
12603;SDS011;6367;52.508;13.284;2023-06-24T02:40:36;12.80;;;11.60;;
12603;SDS011;6367;52.508;13.284;2023-06-24T02:43:02;12.77;;;11.50;;
12603;SDS011;6367;52.508;13.284;2023-06-24T02:45:27;11.47;;;10.40;;
12603;SDS011;6367;52.508;13.284;2023-06-24T02:47:53;13.07;;;11.77;;
12603;SDS011;6367;52.508;13.284;2023-06-24T02:50:21;11.90;;;10.80;;
12603;SDS011;6367;52.508;13.284;2023-06-24T02:52:47;11.93;;;10.67;;
12603;SDS011;6367;52.508;13.284;2023-06-24T02:55:14;12.80;;;11.20;;
12603;SDS011;6367;52.508;13.284;2023-06-24T02:57:40;12.10;;;10.90;;
12603;SDS011;6367;52.508;13.284;2023-06-24T03:00:07;12.70;;;11.50;;
12603;SDS011;6367;52.508;13.284;2023-06-24T03:02:40;11.90;;;10.70;;
12603;SDS011;6367;52.508;13.284;2023-06-24T03:05:07;12.17;;;10.77;;
12603;SDS011;6367;52.508;13.284;2023-06-24T03:07:35;13.17;;;11.30;;
12603;SDS011;6367;52.508;13.284;2023-06-24T03:10:02;10.53;;;9.63;;
12603;SDS011;6367;52.508;13.284;2023-06-24T03:12:30;12.40;;;11.00;;
12603;SDS011;6367;52.508;13.284;2023-06-24T03:14:56;13.33;;;12.07;;
12603;SDS011;6367;52.508;13.284;2023-06-24T03:17:22;11.20;;;10.10;;
12603;SDS011;6367;52.508;13.284;2023-06-24T03:19:47;11.27;;;10.10;;
12603;SDS011;6367;52.508;13.284;2023-06-24T03:22:13;12.97;;;11.80;;
12603;SDS011;6367;52.508;13.284;2023-06-24T03:24:39;11.13;;;10.00;;
12603;SDS011;6367;52.508;13.284;2023-06-24T03:27:04;13.33;;;11.00;;
12603;SDS011;6367;52.508;13.284;2023-06-24T03:29:30;12.10;;;11.07;;
12603;SDS011;6367;52.508;13.284;2023-06-24T03:31:55;12.70;;;11.43;;
12603;SDS011;6367;52.508;13.284;2023-06-24T03:34:21;10.40;;;9.50;;
12603;SDS011;6367;52.508;13.284;2023-06-24T03:36:47;12.83;;;11.70;;
12603;SDS011;6367;52.508;13.284;2023-06-24T03:39:12;13.03;;;10.07;;
12603;SDS011;6367;52.508;13.284;2023-06-24T03:41:38;12.40;;;11.23;;
12603;SDS011;6367;52.508;13.284;2023-06-24T03:44:04;23.37;;;11.03;;
12603;SDS011;6367;52.508;13.284;2023-06-24T03:46:30;13.00;;;11.57;;
12603;SDS011;6367;52.508;13.284;2023-06-24T03:48:57;11.73;;;10.53;;
12603;SDS011;6367;52.508;13.284;2023-06-24T03:51:25;12.50;;;10.87;;
12603;SDS011;6367;52.508;13.284;2023-06-24T03:53:50;11.20;;;10.10;;
12603;SDS011;6367;52.508;13.284;2023-06-24T03:56:16;14.40;;;10.30;;
12603;SDS011;6367;52.508;13.284;2023-06-24T03:58:42;11.27;;;10.27;;
12603;SDS011;6367;52.508;13.284;2023-06-24T04:01:08;12.07;;;10.87;;
12603;SDS011;6367;52.508;13.284;2023-06-24T04:03:34;13.97;;;11.60;;
12603;SDS011;6367;52.508;13.284;2023-06-24T04:06:00;12.63;;;11.43;;
12603;SDS011;6367;52.508;13.284;2023-06-24T04:08:26;11.67;;;10.57;;
12603;SDS011;6367;52.508;13.284;2023-06-24T04:10:55;12.60;;;11.30;;
12603;SDS011;6367;52.508;13.284;2023-06-24T04:13:22;11.93;;;10.80;;
12603;SDS011;6367;52.508;13.284;2023-06-24T04:15:47;11.40;;;10.30;;
12603;SDS011;6367;52.508;13.284;2023-06-24T04:18:13;13.47;;;12.17;;
12603;SDS011;6367;52.508;13.284;2023-06-24T04:20:39;12.00;;;10.80;;
12603;SDS011;6367;52.508;13.284;2023-06-24T04:23:05;12.90;;;11.37;;
12603;SDS011;6367;52.508;13.284;2023-06-24T04:25:31;16.27;;;11.87;;
12603;SDS011;6367;52.508;13.284;2023-06-24T04:27:56;11.63;;;10.53;;
12603;SDS011;6367;52.508;13.284;2023-06-24T04:30:22;11.90;;;10.77;;
12603;SDS011;6367;52.508;13.284;2023-06-24T04:32:48;13.40;;;11.83;;
12603;SDS011;6367;52.508;13.284;2023-06-24T04:35:13;12.40;;;11.10;;
12603;SDS011;6367;52.508;13.284;2023-06-24T04:37:39;13.57;;;12.00;;
12603;SDS011;6367;52.508;13.284;2023-06-24T04:40:05;13.33;;;12.03;;
12603;SDS011;6367;52.508;13.284;2023-06-24T04:42:31;14.37;;;13.00;;
12603;SDS011;6367;52.508;13.284;2023-06-24T04:44:56;13.60;;;12.37;;
12603;SDS011;6367;52.508;13.284;2023-06-24T04:47:22;14.13;;;12.53;;
12603;SDS011;6367;52.508;13.284;2023-06-24T04:49:48;17.23;;;12.50;;
12603;SDS011;6367;52.508;13.284;2023-06-24T04:52:13;12.43;;;11.13;;
12603;SDS011;6367;52.508;13.284;2023-06-24T04:54:39;12.70;;;11.50;;
12603;SDS011;6367;52.508;13.284;2023-06-24T04:57:07;12.50;;;11.27;;
12603;SDS011;6367;52.508;13.284;2023-06-24T04:59:34;13.27;;;11.87;;
12603;SDS011;6367;52.508;13.284;2023-06-24T05:02:01;12.77;;;11.57;;
12603;SDS011;6367;52.508;13.284;2023-06-24T05:04:26;13.60;;;12.20;;
12603;SDS011;6367;52.508;13.284;2023-06-24T05:06:52;12.40;;;11.20;;
12603;SDS011;6367;52.508;13.284;2023-06-24T05:09:18;13.73;;;11.30;;
12603;SDS011;6367;52.508;13.284;2023-06-24T05:11:43;12.97;;;11.67;;
12603;SDS011;6367;52.508;13.284;2023-06-24T05:14:09;14.10;;;12.80;;
12603;SDS011;6367;52.508;13.284;2023-06-24T05:16:35;13.60;;;12.23;;
12603;SDS011;6367;52.508;13.284;2023-06-24T05:19:00;13.33;;;11.93;;
12603;SDS011;6367;52.508;13.284;2023-06-24T05:21:26;14.93;;;13.43;;
12603;SDS011;6367;52.508;13.284;2023-06-24T05:23:52;13.50;;;11.83;;
12603;SDS011;6367;52.508;13.284;2023-06-24T05:26:17;12.63;;;11.50;;
12603;SDS011;6367;52.508;13.284;2023-06-24T05:28:43;13.23;;;11.90;;
12603;SDS011;6367;52.508;13.284;2023-06-24T05:31:08;13.87;;;12.37;;
12603;SDS011;6367;52.508;13.284;2023-06-24T05:33:34;12.37;;;11.00;;
12603;SDS011;6367;52.508;13.284;2023-06-24T05:36:00;12.77;;;11.63;;
12603;SDS011;6367;52.508;13.284;2023-06-24T05:38:25;13.33;;;11.60;;
12603;SDS011;6367;52.508;13.284;2023-06-24T05:40:51;10.93;;;9.90;;
12603;SDS011;6367;52.508;13.284;2023-06-24T05:43:16;10.97;;;9.97;;
12603;SDS011;6367;52.508;13.284;2023-06-24T05:45:42;11.40;;;10.40;;
12603;SDS011;6367;52.508;13.284;2023-06-24T05:48:08;11.17;;;10.23;;
12603;SDS011;6367;52.508;13.284;2023-06-24T05:50:34;12.40;;;11.30;;
12603;SDS011;6367;52.508;13.284;2023-06-24T05:52:59;13.83;;;12.53;;
12603;SDS011;6367;52.508;13.284;2023-06-24T05:55:25;12.40;;;11.20;;
12603;SDS011;6367;52.508;13.284;2023-06-24T05:57:50;13.70;;;12.40;;
12603;SDS011;6367;52.508;13.284;2023-06-24T06:00:17;11.90;;;10.70;;
12603;SDS011;6367;52.508;13.284;2023-06-24T06:02:43;12.97;;;11.63;;
12603;SDS011;6367;52.508;13.284;2023-06-24T06:05:09;12.57;;;9.90;;
12603;SDS011;6367;52.508;13.284;2023-06-24T06:07:34;13.63;;;11.63;;
12603;SDS011;6367;52.508;13.284;2023-06-24T06:10:02;13.07;;;11.07;;
12603;SDS011;6367;52.508;13.284;2023-06-24T06:12:28;15.23;;;11.77;;
12603;SDS011;6367;52.508;13.284;2023-06-24T06:14:54;12.27;;;10.93;;
12603;SDS011;6367;52.508;13.284;2023-06-24T06:17:20;17.93;;;12.50;;
12603;SDS011;6367;52.508;13.284;2023-06-24T06:19:45;11.70;;;10.70;;
12603;SDS011;6367;52.508;13.284;2023-06-24T06:22:11;12.37;;;11.17;;
12603;SDS011;6367;52.508;13.284;2023-06-24T06:24:38;11.37;;;10.27;;
12603;SDS011;6367;52.508;13.284;2023-06-24T06:27:04;11.60;;;10.50;;
12603;SDS011;6367;52.508;13.284;2023-06-24T06:29:34;11.10;;;9.90;;
12603;SDS011;6367;52.508;13.284;2023-06-24T06:31:59;11.57;;;10.20;;
12603;SDS011;6367;52.508;13.284;2023-06-24T06:34:25;11.63;;;10.53;;
12603;SDS011;6367;52.508;13.284;2023-06-24T06:36:51;11.70;;;10.60;;
12603;SDS011;6367;52.508;13.284;2023-06-24T06:39:16;10.43;;;9.60;;
12603;SDS011;6367;52.508;13.284;2023-06-24T06:41:42;10.43;;;9.43;;
12603;SDS011;6367;52.508;13.284;2023-06-24T06:44:08;10.30;;;9.27;;
12603;SDS011;6367;52.508;13.284;2023-06-24T06:46:33;10.10;;;9.10;;
12603;SDS011;6367;52.508;13.284;2023-06-24T06:48:59;10.13;;;9.13;;
12603;SDS011;6367;52.508;13.284;2023-06-24T06:51:25;9.00;;;8.20;;
12603;SDS011;6367;52.508;13.284;2023-06-24T06:53:51;9.27;;;8.47;;
12603;SDS011;6367;52.508;13.284;2023-06-24T06:56:17;9.77;;;8.90;;
12603;SDS011;6367;52.508;13.284;2023-06-24T06:58:53;10.60;;;9.60;;
12603;SDS011;6367;52.508;13.284;2023-06-24T07:01:19;8.63;;;7.83;;
12603;SDS011;6367;52.508;13.284;2023-06-24T07:03:45;8.27;;;7.43;;
12603;SDS011;6367;52.508;13.284;2023-06-24T07:06:11;7.20;;;6.50;;
12603;SDS011;6367;52.508;13.284;2023-06-24T07:08:36;6.90;;;6.30;;
12603;SDS011;6367;52.508;13.284;2023-06-24T07:11:02;6.97;;;6.37;;
12603;SDS011;6367;52.508;13.284;2023-06-24T07:13:28;7.60;;;7.00;;
12603;SDS011;6367;52.508;13.284;2023-06-24T07:15:57;7.20;;;6.60;;
12603;SDS011;6367;52.508;13.284;2023-06-24T07:18:22;6.87;;;6.20;;
12603;SDS011;6367;52.508;13.284;2023-06-24T07:20:48;6.80;;;6.30;;
12603;SDS011;6367;52.508;13.284;2023-06-24T07:23:14;6.87;;;6.37;;
12603;SDS011;6367;52.508;13.284;2023-06-24T07:25:39;6.43;;;5.93;;
12603;SDS011;6367;52.508;13.284;2023-06-24T07:28:05;6.87;;;6.30;;
12603;SDS011;6367;52.508;13.284;2023-06-24T07:30:31;6.77;;;6.07;;
12603;SDS011;6367;52.508;13.284;2023-06-24T07:32:56;7.63;;;7.00;;
12603;SDS011;6367;52.508;13.284;2023-06-24T07:35:22;7.40;;;6.70;;
12603;SDS011;6367;52.508;13.284;2023-06-24T07:37:48;7.33;;;6.73;;
12603;SDS011;6367;52.508;13.284;2023-06-24T07:40:14;7.00;;;6.30;;
12603;SDS011;6367;52.508;13.284;2023-06-24T07:42:40;6.67;;;6.17;;
12603;SDS011;6367;52.508;13.284;2023-06-24T07:45:06;6.77;;;6.17;;
12603;SDS011;6367;52.508;13.284;2023-06-24T07:47:32;6.90;;;6.23;;
12603;SDS011;6367;52.508;13.284;2023-06-24T07:49:58;7.27;;;6.57;;
12603;SDS011;6367;52.508;13.284;2023-06-24T07:52:23;6.77;;;6.00;;
12603;SDS011;6367;52.508;13.284;2023-06-24T07:54:49;5.80;;;5.30;;
12603;SDS011;6367;52.508;13.284;2023-06-24T07:57:15;6.57;;;5.93;;
12603;SDS011;6367;52.508;13.284;2023-06-24T07:59:40;7.43;;;6.63;;
12603;SDS011;6367;52.508;13.284;2023-06-24T08:02:07;6.07;;;5.50;;
12603;SDS011;6367;52.508;13.284;2023-06-24T08:04:32;5.93;;;5.53;;
12603;SDS011;6367;52.508;13.284;2023-06-24T08:06:58;7.03;;;6.33;;
12603;SDS011;6367;52.508;13.284;2023-06-24T08:09:24;7.30;;;6.70;;
12603;SDS011;6367;52.508;13.284;2023-06-24T08:11:49;6.83;;;6.23;;
12603;SDS011;6367;52.508;13.284;2023-06-24T08:14:15;6.03;;;5.53;;
12603;SDS011;6367;52.508;13.284;2023-06-24T08:16:41;6.40;;;5.90;;
12603;SDS011;6367;52.508;13.284;2023-06-24T08:19:06;6.40;;;5.90;;
12603;SDS011;6367;52.508;13.284;2023-06-24T08:21:32;6.43;;;5.90;;
12603;SDS011;6367;52.508;13.284;2023-06-24T08:23:59;9.27;;;5.17;;
12603;SDS011;6367;52.508;13.284;2023-06-24T08:26:25;6.17;;;5.67;;
12603;SDS011;6367;52.508;13.284;2023-06-24T08:32:31;5.83;;;5.33;;
12603;SDS011;6367;52.508;13.284;2023-06-24T08:34:57;6.43;;;5.90;;
12603;SDS011;6367;52.508;13.284;2023-06-24T08:37:22;6.33;;;5.73;;
12603;SDS011;6367;52.508;13.284;2023-06-24T08:39:48;6.27;;;5.70;;
12603;SDS011;6367;52.508;13.284;2023-06-24T08:42:13;6.43;;;5.83;;
12603;SDS011;6367;52.508;13.284;2023-06-24T08:44:39;6.30;;;5.80;;
12603;SDS011;6367;52.508;13.284;2023-06-24T08:47:05;6.00;;;5.50;;
12603;SDS011;6367;52.508;13.284;2023-06-24T08:49:31;6.80;;;6.10;;
12603;SDS011;6367;52.508;13.284;2023-06-24T08:54:36;7.03;;;6.50;;
12603;SDS011;6367;52.508;13.284;2023-06-24T08:57:05;6.63;;;6.13;;
12603;SDS011;6367;52.508;13.284;2023-06-24T08:59:36;6.20;;;5.70;;
12603;SDS011;6367;52.508;13.284;2023-06-24T09:02:02;9.30;;;5.97;;
12603;SDS011;6367;52.508;13.284;2023-06-24T09:04:28;5.67;;;5.00;;
12603;SDS011;6367;52.508;13.284;2023-06-24T09:06:54;6.20;;;5.70;;
12603;SDS011;6367;52.508;13.284;2023-06-24T09:09:20;6.90;;;5.90;;
12603;SDS011;6367;52.508;13.284;2023-06-24T09:14:23;5.10;;;4.70;;
12603;SDS011;6367;52.508;13.284;2023-06-24T09:16:59;5.20;;;4.70;;
12603;SDS011;6367;52.508;13.284;2023-06-24T09:19:32;7.60;;;4.80;;
12603;SDS011;6367;52.508;13.284;2023-06-24T09:22:07;5.73;;;4.97;;
12603;SDS011;6367;52.508;13.284;2023-06-24T09:24:41;5.23;;;4.67;;
12603;SDS011;6367;52.508;13.284;2023-06-24T09:27:06;5.60;;;5.20;;
12603;SDS011;6367;52.508;13.284;2023-06-24T09:29:33;4.90;;;4.50;;
12603;SDS011;6367;52.508;13.284;2023-06-24T09:32:03;4.57;;;4.27;;
12603;SDS011;6367;52.508;13.284;2023-06-24T09:34:29;5.30;;;4.67;;
12603;SDS011;6367;52.508;13.284;2023-06-24T09:36:56;4.60;;;4.30;;
12603;SDS011;6367;52.508;13.284;2023-06-24T09:39:23;5.47;;;4.87;;
12603;SDS011;6367;52.508;13.284;2023-06-24T09:41:56;4.37;;;4.07;;
12603;SDS011;6367;52.508;13.284;2023-06-24T09:44:22;4.67;;;4.27;;
12603;SDS011;6367;52.508;13.284;2023-06-24T09:46:48;5.17;;;4.67;;
12603;SDS011;6367;52.508;13.284;2023-06-24T09:49:14;5.00;;;4.10;;
12603;SDS011;6367;52.508;13.284;2023-06-24T09:51:42;4.13;;;3.73;;
12603;SDS011;6367;52.508;13.284;2023-06-24T09:54:10;5.33;;;4.10;;
12603;SDS011;6367;52.508;13.284;2023-06-24T09:56:48;3.80;;;3.60;;
12603;SDS011;6367;52.508;13.284;2023-06-24T09:59:15;4.10;;;3.73;;
12603;SDS011;6367;52.508;13.284;2023-06-24T10:01:50;4.73;;;4.40;;
12603;SDS011;6367;52.508;13.284;2023-06-24T10:04:18;4.93;;;4.43;;
12603;SDS011;6367;52.508;13.284;2023-06-24T10:06:47;4.60;;;4.20;;
12603;SDS011;6367;52.508;13.284;2023-06-24T10:09:13;6.00;;;4.40;;
12603;SDS011;6367;52.508;13.284;2023-06-24T10:11:42;4.70;;;4.10;;
12603;SDS011;6367;52.508;13.284;2023-06-24T10:14:08;4.33;;;4.00;;
12603;SDS011;6367;52.508;13.284;2023-06-24T10:16:34;4.53;;;4.13;;
12603;SDS011;6367;52.508;13.284;2023-06-24T10:19:00;4.70;;;4.30;;
12603;SDS011;6367;52.508;13.284;2023-06-24T10:24:12;4.10;;;3.73;;
12603;SDS011;6367;52.508;13.284;2023-06-24T10:26:39;5.10;;;3.90;;
12603;SDS011;6367;52.508;13.284;2023-06-24T10:44:54;4.17;;;3.77;;
12603;SDS011;6367;52.508;13.284;2023-06-24T10:47:27;4.60;;;4.23;;
12603;SDS011;6367;52.508;13.284;2023-06-24T10:49:53;4.67;;;4.27;;
12603;SDS011;6367;52.508;13.284;2023-06-24T10:52:20;4.80;;;4.40;;
12603;SDS011;6367;52.508;13.284;2023-06-24T10:54:47;4.90;;;4.50;;
12603;SDS011;6367;52.508;13.284;2023-06-24T10:57:13;4.80;;;4.37;;
12603;SDS011;6367;52.508;13.284;2023-06-24T11:02:13;4.23;;;3.83;;
12603;SDS011;6367;52.508;13.284;2023-06-24T11:04:46;4.57;;;4.27;;
12603;SDS011;6367;52.508;13.284;2023-06-24T11:07:12;4.10;;;3.80;;
12603;SDS011;6367;52.508;13.284;2023-06-24T11:09:42;4.27;;;3.87;;
12603;SDS011;6367;52.508;13.284;2023-06-24T11:12:13;4.37;;;3.97;;
12603;SDS011;6367;52.508;13.284;2023-06-24T11:14:38;4.83;;;4.40;;
12603;SDS011;6367;52.508;13.284;2023-06-24T11:17:05;5.10;;;4.43;;
12603;SDS011;6367;52.508;13.284;2023-06-24T11:19:31;4.27;;;3.97;;
12603;SDS011;6367;52.508;13.284;2023-06-24T11:22:00;5.03;;;4.60;;
12603;SDS011;6367;52.508;13.284;2023-06-24T11:24:29;5.83;;;5.23;;
12603;SDS011;6367;52.508;13.284;2023-06-24T11:26:55;4.50;;;4.20;;
12603;SDS011;6367;52.508;13.284;2023-06-24T11:29:24;4.07;;;3.77;;
12603;SDS011;6367;52.508;13.284;2023-06-24T11:31:53;4.00;;;3.70;;
12603;SDS011;6367;52.508;13.284;2023-06-24T11:34:19;4.37;;;4.00;;
12603;SDS011;6367;52.508;13.284;2023-06-24T11:36:46;4.17;;;3.80;;
12603;SDS011;6367;52.508;13.284;2023-06-24T11:39:23;4.57;;;4.13;;
12603;SDS011;6367;52.508;13.284;2023-06-24T11:41:50;4.60;;;4.20;;
12603;SDS011;6367;52.508;13.284;2023-06-24T11:44:20;4.90;;;4.50;;
12603;SDS011;6367;52.508;13.284;2023-06-24T11:46:48;3.83;;;3.43;;
12603;SDS011;6367;52.508;13.284;2023-06-24T11:49:14;4.70;;;4.30;;
12603;SDS011;6367;52.508;13.284;2023-06-24T11:51:47;5.03;;;4.53;;
12603;SDS011;6367;52.508;13.284;2023-06-24T11:54:18;4.83;;;4.43;;
12603;SDS011;6367;52.508;13.284;2023-06-24T11:56:49;4.30;;;4.10;;
12603;SDS011;6367;52.508;13.284;2023-06-24T11:59:23;4.20;;;3.90;;
12603;SDS011;6367;52.508;13.284;2023-06-24T12:01:55;5.00;;;4.50;;
12603;SDS011;6367;52.508;13.284;2023-06-24T12:04:27;4.60;;;4.30;;
12603;SDS011;6367;52.508;13.284;2023-06-24T12:06:53;4.70;;;4.30;;
12603;SDS011;6367;52.508;13.284;2023-06-24T12:09:19;4.83;;;4.43;;
12603;SDS011;6367;52.508;13.284;2023-06-24T12:11:46;4.13;;;3.83;;
12603;SDS011;6367;52.508;13.284;2023-06-24T12:14:12;4.20;;;3.87;;
12603;SDS011;6367;52.508;13.284;2023-06-24T12:16:38;4.77;;;4.30;;
12603;SDS011;6367;52.508;13.284;2023-06-24T12:19:05;3.73;;;3.50;;
12603;SDS011;6367;52.508;13.284;2023-06-24T12:21:31;4.10;;;3.80;;
12603;SDS011;6367;52.508;13.284;2023-06-24T12:23:57;4.80;;;4.10;;
12603;SDS011;6367;52.508;13.284;2023-06-24T12:26:22;4.10;;;3.80;;
12603;SDS011;6367;52.508;13.284;2023-06-24T12:28:48;4.40;;;4.00;;
12603;SDS011;6367;52.508;13.284;2023-06-24T12:31:14;3.90;;;3.63;;
12603;SDS011;6367;52.508;13.284;2023-06-24T12:33:40;5.40;;;4.70;;
12603;SDS011;6367;52.508;13.284;2023-06-24T12:36:05;6.20;;;4.20;;
12603;SDS011;6367;52.508;13.284;2023-06-24T12:38:31;6.53;;;4.30;;
12603;SDS011;6367;52.508;13.284;2023-06-24T12:40:57;4.50;;;4.00;;
12603;SDS011;6367;52.508;13.284;2023-06-24T12:43:23;3.83;;;3.63;;
12603;SDS011;6367;52.508;13.284;2023-06-24T12:45:49;6.33;;;4.47;;
12603;SDS011;6367;52.508;13.284;2023-06-24T12:48:16;4.37;;;3.97;;
12603;SDS011;6367;52.508;13.284;2023-06-24T12:50:41;4.40;;;4.03;;
12603;SDS011;6367;52.508;13.284;2023-06-24T12:53:07;4.50;;;4.20;;
12603;SDS011;6367;52.508;13.284;2023-06-24T12:55:35;4.97;;;4.57;;
12603;SDS011;6367;52.508;13.284;2023-06-24T12:58:01;4.60;;;4.30;;
12603;SDS011;6367;52.508;13.284;2023-06-24T13:00:27;5.17;;;4.77;;
12603;SDS011;6367;52.508;13.284;2023-06-24T13:02:53;6.40;;;4.10;;
12603;SDS011;6367;52.508;13.284;2023-06-24T13:05:19;4.93;;;4.33;;
12603;SDS011;6367;52.508;13.284;2023-06-24T13:07:44;5.50;;;4.40;;
12603;SDS011;6367;52.508;13.284;2023-06-24T13:10:10;4.77;;;4.47;;
12603;SDS011;6367;52.508;13.284;2023-06-24T13:12:36;5.20;;;4.80;;
12603;SDS011;6367;52.508;13.284;2023-06-24T13:15:05;4.50;;;4.10;;
12603;SDS011;6367;52.508;13.284;2023-06-24T13:17:32;4.93;;;4.43;;
12603;SDS011;6367;52.508;13.284;2023-06-24T13:19:57;4.77;;;4.40;;
12603;SDS011;6367;52.508;13.284;2023-06-24T13:22:23;4.63;;;4.33;;
12603;SDS011;6367;52.508;13.284;2023-06-24T13:24:49;4.17;;;3.87;;
12603;SDS011;6367;52.508;13.284;2023-06-24T13:27:15;4.90;;;4.50;;
12603;SDS011;6367;52.508;13.284;2023-06-24T13:29:41;4.80;;;4.40;;
12603;SDS011;6367;52.508;13.284;2023-06-24T13:32:07;4.20;;;3.90;;
12603;SDS011;6367;52.508;13.284;2023-06-24T13:34:33;4.00;;;3.70;;
12603;SDS011;6367;52.508;13.284;2023-06-24T13:36:59;4.60;;;4.20;;
12603;SDS011;6367;52.508;13.284;2023-06-24T13:39:25;5.20;;;4.80;;
12603;SDS011;6367;52.508;13.284;2023-06-24T13:41:52;5.47;;;5.00;;
12603;SDS011;6367;52.508;13.284;2023-06-24T13:44:18;5.13;;;4.73;;
12603;SDS011;6367;52.508;13.284;2023-06-24T13:46:44;4.57;;;4.20;;
12603;SDS011;6367;52.508;13.284;2023-06-24T13:49:10;4.70;;;3.80;;
12603;SDS011;6367;52.508;13.284;2023-06-24T13:51:36;4.50;;;4.10;;
12603;SDS011;6367;52.508;13.284;2023-06-24T13:54:02;4.70;;;4.30;;
12603;SDS011;6367;52.508;13.284;2023-06-24T13:56:28;4.70;;;4.20;;
12603;SDS011;6367;52.508;13.284;2023-06-24T13:58:54;4.90;;;4.10;;
12603;SDS011;6367;52.508;13.284;2023-06-24T14:01:20;4.23;;;3.93;;
12603;SDS011;6367;52.508;13.284;2023-06-24T14:03:47;5.50;;;4.07;;
12603;SDS011;6367;52.508;13.284;2023-06-24T14:06:16;4.40;;;4.10;;
12603;SDS011;6367;52.508;13.284;2023-06-24T14:08:44;4.97;;;4.47;;
12603;SDS011;6367;52.508;13.284;2023-06-24T14:11:10;5.30;;;4.50;;
12603;SDS011;6367;52.508;13.284;2023-06-24T14:13:35;4.80;;;4.50;;
12603;SDS011;6367;52.508;13.284;2023-06-24T14:16:02;4.50;;;3.87;;
12603;SDS011;6367;52.508;13.284;2023-06-24T14:18:28;5.10;;;4.60;;
12603;SDS011;6367;52.508;13.284;2023-06-24T14:20:58;4.70;;;4.30;;
12603;SDS011;6367;52.508;13.284;2023-06-24T14:23:24;5.30;;;4.80;;
12603;SDS011;6367;52.508;13.284;2023-06-24T14:25:51;5.30;;;4.80;;
12603;SDS011;6367;52.508;13.284;2023-06-24T14:28:17;4.50;;;4.10;;
12603;SDS011;6367;52.508;13.284;2023-06-24T14:30:42;4.37;;;3.97;;
12603;SDS011;6367;52.508;13.284;2023-06-24T14:33:08;4.60;;;4.30;;
12603;SDS011;6367;52.508;13.284;2023-06-24T14:35:34;4.80;;;4.40;;
12603;SDS011;6367;52.508;13.284;2023-06-24T14:38:00;4.40;;;4.10;;
12603;SDS011;6367;52.508;13.284;2023-06-24T14:40:26;4.70;;;4.40;;
12603;SDS011;6367;52.508;13.284;2023-06-24T14:42:52;5.23;;;4.83;;
12603;SDS011;6367;52.508;13.284;2023-06-24T14:45:17;5.00;;;4.60;;
12603;SDS011;6367;52.508;13.284;2023-06-24T14:47:43;4.90;;;4.40;;
12603;SDS011;6367;52.508;13.284;2023-06-24T14:50:09;4.50;;;4.10;;
12603;SDS011;6367;52.508;13.284;2023-06-24T14:52:35;4.40;;;4.00;;
12603;SDS011;6367;52.508;13.284;2023-06-24T14:55:01;4.97;;;4.57;;
12603;SDS011;6367;52.508;13.284;2023-06-24T14:57:26;4.67;;;4.33;;
12603;SDS011;6367;52.508;13.284;2023-06-24T14:59:52;4.77;;;4.37;;
12603;SDS011;6367;52.508;13.284;2023-06-24T15:02:18;5.30;;;4.53;;
12603;SDS011;6367;52.508;13.284;2023-06-24T15:04:45;4.97;;;4.57;;
12603;SDS011;6367;52.508;13.284;2023-06-24T15:07:10;5.37;;;4.87;;
12603;SDS011;6367;52.508;13.284;2023-06-24T15:09:36;6.00;;;5.40;;
12603;SDS011;6367;52.508;13.284;2023-06-24T15:12:01;4.77;;;4.33;;